Time;durP1;ratioP1;P1;durP2;ratioP2;P2;SDS_P1;SDS_P2;PMS_P1;PMS_P2;Temp;Humidity;BMP_temperature;BMP_pressure;BME280_temperature;BME280_humidity;BME280_pressure;Samples;Min_cycle;Max_cycle;Signal;HPM_P1;HPM_P2
2023/05/29 00:01:46;;;;;;;6.60;0.98;;;13.10;70.10;;;;;;6181009;23;20462;-91
2023/05/29 00:04:13;;;;;;;5.22;0.70;;;13.10;70.30;;;;;;6131023;23;20010;-91
2023/05/29 00:06:41;;;;;;;7.50;1.15;;;13.00;70.30;;;;;;6131669;23;20526;-91
2023/05/29 00:09:09;;;;;;;6.88;1.05;;;13.00;70.40;;;;;;6156047;23;20083;-91
2023/05/29 00:11:36;;;;;;;4.00;0.80;;;13.00;70.50;;;;;;6132172;23;20025;-90
2023/05/29 00:14:03;;;;;;;3.53;0.60;;;12.90;70.50;;;;;;6131350;23;20021;-90
2023/05/29 00:16:31;;;;;;;5.72;0.82;;;12.90;70.60;;;;;;6131316;23;20518;-90
2023/05/29 00:18:58;;;;;;;5.68;0.75;;;12.90;70.70;;;;;;6131476;23;20474;-90
2023/05/29 00:21:25;;;;;;;4.85;0.73;;;12.80;70.80;;;;;;6131317;23;20041;-90
2023/05/29 00:23:55;;;;;;;6.40;0.88;;;12.80;70.90;;;;;;6181975;23;20017;-89
2023/05/29 00:26:22;;;;;;;5.03;0.60;;;12.80;70.90;;;;;;6161966;23;20519;-90
2023/05/29 00:28:53;;;;;;;7.68;0.70;;;12.80;70.90;;;;;;6163197;23;20068;-90
2023/05/29 00:31:21;;;;;;;4.78;0.60;;;12.80;70.80;;;;;;6158925;23;20022;-86
2023/05/29 00:33:48;;;;;;;4.03;0.73;;;12.70;70.80;;;;;;6130956;23;20048;-85
2023/05/29 00:36:17;;;;;;;3.72;0.85;;;12.70;70.90;;;;;;6130786;23;20024;-85
2023/05/29 00:38:46;;;;;;;4.40;0.70;;;12.60;71.00;;;;;;6179175;23;20100;-85
2023/05/29 00:41:15;;;;;;;6.53;0.80;;;12.60;71.10;;;;;;6130497;23;20043;-85
2023/05/29 00:43:43;;;;;;;6.63;0.88;;;12.60;70.90;;;;;;6154519;23;20093;-85
2023/05/29 00:46:13;;;;;;;3.20;0.50;;;12.50;70.90;;;;;;6106242;23;20049;-86
2023/05/29 00:48:42;;;;;;;3.63;0.52;;;12.50;70.80;;;;;;6154779;23;20026;-86
2023/05/29 00:51:11;;;;;;;4.68;0.70;;;12.50;70.90;;;;;;6154678;23;20060;-85
2023/05/29 00:53:42;;;;;;;7.38;0.50;;;12.50;70.90;;;;;;6154599;23;20076;-85
2023/05/29 00:56:10;;;;;;;3.90;0.60;;;12.40;70.80;;;;;;6154968;23;20446;-86
2023/05/29 00:58:37;;;;;;;3.25;0.60;;;12.40;70.90;;;;;;6130415;23;20076;-86
2023/05/29 01:01:05;;;;;;;4.25;0.88;;;12.30;70.90;;;;;;6106362;23;20018;-86
2023/05/29 01:03:35;;;;;;;5.45;0.52;;;12.30;71.00;;;;;;6155293;23;20028;-85
2023/05/29 01:06:03;;;;;;;4.47;0.85;;;12.30;71.00;;;;;;6130652;23;20025;-85
2023/05/29 01:08:30;;;;;;;7.25;0.55;;;12.30;70.90;;;;;;6179317;23;20456;-86
2023/05/29 01:11:05;;;;;;;5.05;0.60;;;12.30;71.00;;;;;;6106068;23;20021;-85
2023/05/29 01:13:35;;;;;;;6.38;0.55;;;12.20;71.00;;;;;;6179369;23;20021;-85
2023/05/29 01:16:19;;;;;;;4.07;0.88;;;12.20;71.00;;;;;;6154266;23;20022;-85
2023/05/29 01:19:15;;;;;;;6.50;0.80;;;12.20;71.00;;;;;;6179477;23;20021;-85
2023/05/29 01:22:07;;;;;;;5.88;0.50;;;12.10;71.00;;;;;;6091384;23;20348;-85
2023/05/29 01:24:56;;;;;;;3.72;0.50;;;12.10;71.10;;;;;;6154727;23;20452;-85
2023/05/29 01:27:25;;;;;;;8.20;0.70;;;12.10;71.10;;;;;;6179283;23;20022;-85
2023/05/29 01:29:55;;;;;;;3.97;0.65;;;12.10;71.10;;;;;;6179738;23;20029;-85
2023/05/29 01:32:26;;;;;;;4.03;0.65;;;12.00;71.10;;;;;;6106180;23;20026;-86
2023/05/29 01:34:53;;;;;;;3.50;0.57;;;12.00;71.10;;;;;;6179074;23;20471;-85
2023/05/29 01:37:20;;;;;;;3.35;0.30;;;12.00;71.20;;;;;;6130067;23;20473;-85
2023/05/29 01:39:47;;;;;;;5.10;0.40;;;12.00;71.20;;;;;;6130554;23;20072;-85
2023/05/29 01:42:14;;;;;;;4.63;0.57;;;12.00;71.30;;;;;;6156838;23;20025;-85
2023/05/29 01:44:42;;;;;;;2.00;0.25;;;11.90;71.40;;;;;;6132004;23;20479;-85
2023/05/29 01:47:09;;;;;;;3.95;0.50;;;11.90;71.50;;;;;;6132052;23;20555;-85
2023/05/29 01:49:37;;;;;;;3.63;0.40;;;11.90;72.10;;;;;;6131951;23;20037;-85
2023/05/29 01:52:05;;;;;;;5.00;0.40;;;11.80;71.50;;;;;;6156072;23;20032;-85
2023/05/29 01:54:32;;;;;;;4.63;0.55;;;11.80;71.60;;;;;;6132010;23;20100;-85
2023/05/29 01:57:02;;;;;;;5.15;0.80;;;11.80;71.70;;;;;;6155654;23;20411;-86
2023/05/29 01:59:33;;;;;;;2.60;0.60;;;11.80;71.90;;;;;;6157591;23;20032;-85
2023/05/29 02:02:08;;;;;;;5.53;0.40;;;11.70;71.90;;;;;;6156201;23;20026;-85
2023/05/29 02:04:35;;;;;;;3.92;0.65;;;11.70;72.00;;;;;;6156239;23;20022;-85
2023/05/29 02:07:03;;;;;;;3.90;0.57;;;11.60;72.00;;;;;;6157033;23;20134;-85
2023/05/29 02:09:30;;;;;;;4.72;0.93;;;11.60;72.00;;;;;;6180941;23;20021;-85
2023/05/29 02:11:57;;;;;;;3.00;0.30;;;11.60;72.20;;;;;;6132137;23;20440;-85
2023/05/29 02:14:25;;;;;;;1.65;0.30;;;11.60;72.20;;;;;;6107509;23;20037;-85
2023/05/29 02:16:53;;;;;;;5.07;0.40;;;11.60;72.20;;;;;;6131776;23;20021;-85
2023/05/29 02:19:25;;;;;;;10.13;1.13;;;11.50;72.20;;;;;;6132274;23;20105;-85
2023/05/29 02:21:53;;;;;;;5.93;0.98;;;11.50;72.40;;;;;;6132941;23;20025;-85
2023/05/29 02:24:20;;;;;;;3.72;0.40;;;11.50;72.50;;;;;;6132219;23;20026;-85
2023/05/29 02:26:51;;;;;;;2.97;0.47;;;11.40;72.50;;;;;;6132877;23;20017;-85
2023/05/29 02:29:18;;;;;;;1.92;0.40;;;11.40;72.60;;;;;;6132138;23;20021;-85
2023/05/29 02:31:45;;;;;;;7.30;0.80;;;11.50;72.60;;;;;;6131686;23;20534;-85
2023/05/29 02:34:12;;;;;;;7.82;0.85;;;11.50;73.10;;;;;;6131603;23;20045;-86
2023/05/29 02:36:41;;;;;;;4.93;0.52;;;11.40;73.20;;;;;;6131856;23;20439;-85
2023/05/29 02:39:09;;;;;;;4.32;0.70;;;11.30;73.10;;;;;;6131683;23;20511;-86
2023/05/29 02:41:37;;;;;;;2.72;0.52;;;11.40;73.20;;;;;;6132203;23;20017;-85
2023/05/29 02:44:05;;;;;;;2.25;0.30;;;11.30;73.20;;;;;;6156041;23;20014;-84
2023/05/29 02:46:32;;;;;;;6.43;0.90;;;11.30;73.30;;;;;;6156187;23;20025;-85
2023/05/29 02:48:59;;;;;;;5.10;2.17;;;11.30;73.40;;;;;;6155802;23;20033;-85
2023/05/29 02:51:27;;;;;;;3.83;0.43;;;11.20;73.40;;;;;;6131092;23;20025;-86
2023/05/29 02:53:55;;;;;;;5.18;0.52;;;11.20;73.40;;;;;;6131896;23;20083;-86
2023/05/29 02:56:23;;;;;;;2.92;0.40;;;11.20;73.50;;;;;;6107782;23;20444;-85
2023/05/29 02:58:50;;;;;;;4.68;0.60;;;11.20;73.70;;;;;;6107616;23;20075;-85
2023/05/29 03:01:18;;;;;;;7.18;0.60;;;11.10;73.70;;;;;;6131421;23;20014;-86
2023/05/29 03:03:45;;;;;;;5.82;0.90;;;11.10;74.00;;;;;;6131525;23;20047;-85
2023/05/29 03:06:12;;;;;;;8.32;1.08;;;11.10;74.20;;;;;;6131554;23;20026;-85
2023/05/29 03:08:40;;;;;;;3.28;0.60;;;11.10;74.30;;;;;;6131313;23;20025;-85
2023/05/29 03:11:10;;;;;;;4.35;0.63;;;11.00;74.20;;;;;;6155908;23;20400;-85
2023/05/29 03:13:38;;;;;;;2.63;0.40;;;11.00;74.20;;;;;;6107249;23;20025;-85
2023/05/29 03:16:08;;;;;;;4.82;0.55;;;11.00;74.30;;;;;;6180448;23;20440;-85
2023/05/29 03:18:37;;;;;;;5.78;0.88;;;11.00;74.40;;;;;;6155558;23;20022;-85
2023/05/29 03:21:04;;;;;;;5.63;0.40;;;10.90;74.30;;;;;;6131002;23;20340;-85
2023/05/29 03:23:33;;;;;;;7.45;1.05;;;10.90;74.30;;;;;;6107824;23;20096;-85
2023/05/29 03:26:01;;;;;;;2.92;0.80;;;10.90;74.50;;;;;;6155654;23;20076;-85
2023/05/29 03:28:30;;;;;;;2.92;0.70;;;10.80;74.60;;;;;;6156038;23;20045;-85
2023/05/29 03:30:59;;;;;;;5.13;0.50;;;10.80;74.70;;;;;;6131650;23;20032;-85
2023/05/29 03:33:26;;;;;;;2.35;0.47;;;10.80;74.70;;;;;;6131159;23;20112;-85
2023/05/29 03:36:14;;;;;;;3.55;0.50;;;10.80;74.90;;;;;;6135344;23;20356;-85
2023/05/29 03:38:41;;;;;;;5.35;0.60;;;10.70;74.70;;;;;;6131389;23;20017;-85
2023/05/29 03:41:10;;;;;;;3.35;0.57;;;10.70;74.80;;;;;;6131961;23;20108;-85
2023/05/29 03:43:37;;;;;;;2.42;0.43;;;10.80;74.90;;;;;;6131008;23;20120;-86
2023/05/29 03:46:07;;;;;;;3.95;0.65;;;10.80;74.90;;;;;;6131101;23;20029;-85
2023/05/29 03:48:36;;;;;;;2.83;0.57;;;10.70;74.90;;;;;;6108370;23;20032;-86
2023/05/29 03:51:04;;;;;;;3.13;0.40;;;10.70;74.90;;;;;;6180251;23;20044;-85
2023/05/29 03:53:35;;;;;;;1.85;0.40;;;10.70;75.00;;;;;;6132152;23;20022;-86
2023/05/29 03:56:03;;;;;;;3.65;0.68;;;10.70;75.00;;;;;;6179974;23;20022;-85
2023/05/29 03:58:32;;;;;;;5.88;0.70;;;10.70;75.00;;;;;;6155744;23;20459;-85
2023/05/29 04:01:01;;;;;;;5.35;0.60;;;10.70;75.00;;;;;;6131079;23;20024;-85
2023/05/29 04:03:31;;;;;;;3.97;0.50;;;10.70;75.00;;;;;;6155825;23;20045;-86
2023/05/29 04:05:58;;;;;;;4.45;0.50;;;10.70;75.10;;;;;;6130823;23;20021;-85
2023/05/29 04:08:27;;;;;;;3.42;0.75;;;10.70;75.00;;;;;;6130259;23;20028;-85
2023/05/29 04:10:55;;;;;;;2.88;0.50;;;10.80;75.00;;;;;;6130409;23;20029;-85
2023/05/29 04:13:23;;;;;;;3.47;0.90;;;10.80;75.10;;;;;;6130067;23;20021;-85
2023/05/29 04:15:53;;;;;;;5.18;0.70;;;10.80;75.10;;;;;;6130029;23;20025;-85
2023/05/29 04:18:21;;;;;;;4.93;0.90;;;10.80;75.20;;;;;;6132208;23;20017;-85
2023/05/29 04:20:48;;;;;;;2.75;0.32;;;10.80;75.10;;;;;;6106332;23;20037;-85
2023/05/29 04:23:16;;;;;;;4.53;0.52;;;10.80;75.10;;;;;;6130706;23;20471;-85
2023/05/29 04:25:43;;;;;;;7.22;1.33;;;10.80;74.90;;;;;;6106586;23;20021;-85
2023/05/29 04:28:13;;;;;;;4.75;0.70;;;10.80;75.00;;;;;;6155880;23;20025;-85
2023/05/29 04:30:41;;;;;;;4.13;0.60;;;10.90;74.90;;;;;;6106709;23;20018;-85
2023/05/29 04:33:12;;;;;;;3.67;0.60;;;10.80;75.00;;;;;;6107297;23;20105;-85
2023/05/29 04:35:44;;;;;;;2.22;0.45;;;10.80;75.10;;;;;;6108912;23;20100;-87
2023/05/29 04:38:11;;;;;;;6.13;0.70;;;10.80;75.10;;;;;;6130785;23;20401;-86
2023/05/29 04:40:40;;;;;;;5.55;0.60;;;10.80;75.10;;;;;;6106435;23;20024;-86
2023/05/29 04:43:07;;;;;;;6.47;0.70;;;10.80;75.10;;;;;;6136541;23;20454;-86
2023/05/29 04:45:58;;;;;;;4.85;0.75;;;10.90;75.10;;;;;;6120145;23;20025;-86
2023/05/29 04:48:28;;;;;;;6.18;1.08;;;10.90;74.90;;;;;;6112587;23;20347;-86
2023/05/29 04:50:57;;;;;;;8.15;0.70;;;10.90;75.00;;;;;;6135520;23;20428;-86
2023/05/29 04:53:24;;;;;;;4.07;0.60;;;10.90;75.10;;;;;;6160315;23;20068;-86
2023/05/29 04:55:52;;;;;;;3.88;0.30;;;10.90;75.10;;;;;;6135796;23;20420;-86
2023/05/29 04:58:21;;;;;;;4.80;0.55;;;10.90;75.00;;;;;;6136009;23;20013;-85
2023/05/29 05:00:50;;;;;;;2.78;0.45;;;10.90;75.60;;;;;;6136881;23;20048;-85
2023/05/29 05:03:17;;;;;;;5.25;0.68;;;11.00;74.90;;;;;;6160005;23;20021;-85
2023/05/29 05:05:45;;;;;;;3.40;0.40;;;11.00;74.90;;;;;;6160384;23;20021;-86
2023/05/29 05:08:16;;;;;;;4.85;1.17;;;11.00;74.70;;;;;;6089398;23;20021;-86
2023/05/29 05:10:44;;;;;;;4.55;0.45;;;11.10;74.60;;;;;;6159779;23;20021;-86
2023/05/29 05:13:12;;;;;;;4.07;0.95;;;11.10;74.50;;;;;;6184494;23;20347;-86
2023/05/29 05:15:40;;;;;;;3.22;0.77;;;11.20;74.50;;;;;;6160028;23;20021;-85
2023/05/29 05:18:07;;;;;;;5.28;0.50;;;11.20;74.30;;;;;;6135013;23;20021;-86
2023/05/29 05:20:35;;;;;;;4.00;0.38;;;11.30;74.30;;;;;;6135712;23;20095;-86
2023/05/29 05:23:03;;;;;;;2.35;0.43;;;11.30;74.10;;;;;;6159808;23;20095;-86
2023/05/29 05:25:30;;;;;;;3.95;0.52;;;11.40;74.00;;;;;;6135609;23;20494;-86
2023/05/29 05:27:59;;;;;;;5.80;0.73;;;11.40;73.90;;;;;;6184383;23;20478;-86
2023/05/29 05:30:27;;;;;;;5.50;0.52;;;11.50;73.90;;;;;;6135227;23;20161;-86
2023/05/29 05:32:55;;;;;;;4.13;0.47;;;11.50;73.80;;;;;;6110976;23;20360;-86
2023/05/29 05:35:23;;;;;;;5.43;0.80;;;11.50;73.70;;;;;;6184954;23;20507;-86
2023/05/29 05:37:50;;;;;;;7.25;0.77;;;11.60;73.50;;;;;;6184291;23;20021;-86
2023/05/29 05:40:17;;;;;;;4.45;0.65;;;11.70;73.50;;;;;;6159811;23;20105;-86
2023/05/29 05:42:57;;;;;;;3.17;0.50;;;11.70;73.30;;;;;;6137448;23;20025;-86
2023/05/29 05:45:42;;;;;;;3.67;0.50;;;11.70;73.20;;;;;;6138479;23;20024;-86
2023/05/29 05:48:10;;;;;;;5.95;0.82;;;11.80;73.00;;;;;;6135072;23;20021;-86
2023/05/29 05:50:38;;;;;;;5.15;0.80;;;11.80;72.90;;;;;;6134578;23;20025;-81
2023/05/29 05:53:05;;;;;;;4.80;0.68;;;11.90;72.80;;;;;;6183037;23;20420;-79
2023/05/29 05:55:35;;;;;;;6.60;0.95;;;12.00;72.60;;;;;;6133728;23;20025;-80
2023/05/29 05:58:03;;;;;;;5.70;1.25;;;12.00;72.60;;;;;;6183161;23;20017;-80
2023/05/29 06:00:30;;;;;;;3.95;0.63;;;12.00;72.50;;;;;;6158366;23;20059;-80
2023/05/29 06:02:57;;;;;;;5.95;0.57;;;12.10;72.40;;;;;;6158204;23;20456;-80
2023/05/29 06:05:46;;;;;;;2.78;0.65;;;12.20;72.20;;;;;;6182792;23;20017;-80
2023/05/29 06:08:13;;;;;;;5.70;0.75;;;12.30;71.80;;;;;;6182926;23;20017;-80
2023/05/29 06:10:41;;;;;;;6.38;0.50;;;12.50;71.50;;;;;;6109859;23;20025;-79
2023/05/29 06:13:09;;;;;;;6.97;0.80;;;12.60;71.20;;;;;;6134019;23;20025;-80
2023/05/29 06:15:45;;;;;;;6.15;0.65;;;12.70;71.00;;;;;;6182693;23;20021;-80
2023/05/29 06:18:12;;;;;;;5.90;0.57;;;12.80;70.90;;;;;;6133828;23;20108;-80
2023/05/29 06:20:39;;;;;;;7.20;0.88;;;12.90;70.70;;;;;;6158197;23;20515;-80
2023/05/29 06:23:07;;;;;;;4.90;0.70;;;12.90;70.50;;;;;;6158472;23;20021;-80
2023/05/29 06:25:36;;;;;;;9.00;1.08;;;12.90;70.30;;;;;;6182729;23;20408;-80
2023/05/29 06:28:05;;;;;;;4.47;0.75;;;13.00;70.20;;;;;;6135541;23;20333;-79
2023/05/29 06:30:33;;;;;;;4.90;0.90;;;13.00;70.10;;;;;;6186015;23;20444;-79
2023/05/29 06:33:05;;;;;;;4.43;0.55;;;13.10;69.90;;;;;;6113248;23;20021;-80
2023/05/29 06:35:34;;;;;;;2.58;0.60;;;13.00;69.70;;;;;;6112137;23;20024;-80
2023/05/29 06:38:01;;;;;;;5.88;0.85;;;13.10;69.60;;;;;;6134978;23;20040;-80
2023/05/29 06:40:29;;;;;;;5.95;0.82;;;13.10;69.50;;;;;;6135502;23;20021;-80
2023/05/29 06:42:56;;;;;;;4.65;0.65;;;13.20;69.30;;;;;;6135030;23;20440;-80
2023/05/29 06:45:37;;;;;;;6.53;1.58;;;13.30;69.10;;;;;;6116760;23;20040;-80
2023/05/29 06:48:05;;;;;;;3.75;0.57;;;13.40;68.80;;;;;;6159949;23;20025;-80
2023/05/29 06:50:33;;;;;;;4.50;0.50;;;13.40;68.50;;;;;;6185890;23;20021;-80
2023/05/29 06:53:23;;;;;;;7.47;0.68;;;13.50;68.30;;;;;;6164722;23;20096;-80
2023/05/29 06:55:55;;;;;;;1.45;0.40;;;13.60;68.00;;;;;;6184390;23;20052;-80
2023/05/29 06:58:22;;;;;;;4.28;0.60;;;13.60;67.80;;;;;;6159709;23;20016;-80
2023/05/29 07:00:50;;;;;;;4.80;0.50;;;13.70;67.60;;;;;;6159381;23;20071;-80
2023/05/29 07:03:27;;;;;;;6.10;0.63;;;13.70;67.50;;;;;;6114729;23;20115;-80
2023/05/29 07:05:54;;;;;;;3.47;0.50;;;13.80;67.40;;;;;;6159335;23;20017;-80
2023/05/29 07:08:22;;;;;;;5.22;0.63;;;14.00;67.70;;;;;;6159691;23;20031;-80
2023/05/29 07:10:51;;;;;;;5.00;1.10;;;14.00;66.80;;;;;;6183427;23;20028;-80
2023/05/29 07:13:20;;;;;;;4.00;0.55;;;14.00;66.60;;;;;;6111630;23;20075;-80
2023/05/29 07:15:50;;;;;;;6.88;0.80;;;14.10;66.40;;;;;;6159330;23;20047;-80
2023/05/29 07:18:23;;;;;;;4.22;0.63;;;14.10;66.10;;;;;;6183775;23;20091;-80
2023/05/29 07:20:50;;;;;;;3.22;0.45;;;14.20;66.30;;;;;;6159556;23;20466;-80
2023/05/29 07:23:19;;;;;;;1.88;0.57;;;14.20;65.90;;;;;;6135204;23;20044;-80
2023/05/29 07:25:46;;;;;;;2.22;0.40;;;14.30;65.70;;;;;;6110872;23;20052;-80
2023/05/29 07:28:13;;;;;;;4.07;0.30;;;14.40;65.60;;;;;;6159424;23;20115;-80
2023/05/29 07:30:47;;;;;;;6.47;0.60;;;14.60;65.30;;;;;;6158989;23;20341;-80
2023/05/29 07:33:14;;;;;;;3.78;0.70;;;14.60;65.10;;;;;;6158963;23;20462;-80
2023/05/29 07:35:41;;;;;;;3.15;0.43;;;14.60;65.10;;;;;;6135029;23;20049;-80
2023/05/29 07:38:09;;;;;;;7.60;1.17;;;14.60;64.80;;;;;;6134221;23;20021;-80
2023/05/29 07:40:37;;;;;;;5.30;1.00;;;14.70;64.70;;;;;;6110968;23;20451;-80
2023/05/29 07:43:18;;;;;;;2.67;0.40;;;14.80;64.50;;;;;;6132505;23;20030;-80
2023/05/29 07:45:53;;;;;;;7.78;0.60;;;14.90;64.30;;;;;;6131502;23;20041;-80
2023/05/29 07:48:22;;;;;;;3.80;0.50;;;15.00;64.10;;;;;;6129942;23;20396;-80
2023/05/29 07:50:51;;;;;;;4.03;1.23;;;15.10;63.90;;;;;;6130192;23;20025;-81
2023/05/29 07:53:19;;;;;;;3.80;0.50;;;15.10;64.00;;;;;;6154272;23;20021;-81
2023/05/29 07:55:47;;;;;;;3.25;0.50;;;15.20;63.90;;;;;;6129882;23;20032;-86
2023/05/29 07:58:16;;;;;;;3.58;0.52;;;15.20;63.80;;;;;;6129596;23;20018;-80
2023/05/29 08:00:44;;;;;;;4.78;0.85;;;15.30;63.50;;;;;;6129944;23;20096;-80
2023/05/29 08:03:13;;;;;;;4.07;0.70;;;15.40;63.30;;;;;;6130051;23;20021;-80
2023/05/29 08:06:06;;;;;;;5.35;0.80;;;15.40;63.20;;;;;;6147216;23;20053;-80
2023/05/29 08:08:34;;;;;;;4.40;0.98;;;15.30;63.20;;;;;;6105290;23;20108;-82
2023/05/29 08:11:01;;;;;;;7.97;1.75;;;15.30;63.20;;;;;;6105220;23;20032;-80
2023/05/29 08:13:30;;;;;;;7.07;1.00;;;15.40;63.00;;;;;;6178669;23;20029;-80
2023/05/29 08:15:58;;;;;;;7.80;0.80;;;15.40;63.00;;;;;;6178587;23;20028;-79
2023/05/29 08:18:26;;;;;;;3.50;0.60;;;15.40;62.90;;;;;;6129668;23;20022;-80
2023/05/29 08:20:53;;;;;;;9.52;0.90;;;15.50;62.80;;;;;;6178406;23;20072;-80
2023/05/29 08:23:21;;;;;;;4.57;0.80;;;15.60;62.60;;;;;;6129678;23;20013;-80
2023/05/29 08:25:48;;;;;;;3.15;0.52;;;15.80;62.30;;;;;;6129159;23;20025;-80
2023/05/29 08:28:18;;;;;;;4.22;0.52;;;15.90;62.10;;;;;;6153860;23;20025;-80
2023/05/29 08:30:45;;;;;;;6.38;0.65;;;16.00;61.70;;;;;;6155544;23;20089;-80
2023/05/29 08:33:12;;;;;;;3.30;0.50;;;15.90;61.60;;;;;;6129119;23;20056;-81
2023/05/29 08:35:39;;;;;;;3.97;0.60;;;15.90;61.40;;;;;;6129424;23;20032;-80
2023/05/29 08:38:10;;;;;;;3.53;0.47;;;15.90;61.60;;;;;;6177491;23;20471;-80
2023/05/29 08:40:37;;;;;;;4.03;0.65;;;16.00;61.50;;;;;;6155077;23;20068;-80
2023/05/29 08:43:16;;;;;;;5.65;0.77;;;16.20;61.20;;;;;;6178087;23;20017;-80
2023/05/29 08:45:44;;;;;;;2.97;0.60;;;16.30;61.00;;;;;;6153441;23;20039;-79
2023/05/29 08:48:12;;;;;;;6.65;0.82;;;16.40;60.80;;;;;;6178146;23;20025;-81
2023/05/29 08:50:48;;;;;;;5.68;0.60;;;16.50;60.60;;;;;;6128643;23;20029;-81
2023/05/29 08:53:16;;;;;;;3.05;0.40;;;16.70;60.40;;;;;;6178138;23;20025;-81
2023/05/29 08:55:45;;;;;;;3.13;0.50;;;16.70;60.10;;;;;;6155092;23;20108;-80
2023/05/29 08:58:14;;;;;;;3.28;0.35;;;16.80;60.00;;;;;;6154623;23;20092;-80
2023/05/29 09:00:41;;;;;;;3.35;0.57;;;16.90;59.80;;;;;;6128637;23;20052;-80
2023/05/29 09:03:09;;;;;;;5.43;0.50;;;17.10;59.40;;;;;;6129046;23;20041;-83
2023/05/29 09:05:40;;;;;;;4.82;0.90;;;17.20;59.10;;;;;;6129193;23;20017;-80
2023/05/29 09:08:10;;;;;;;3.72;0.55;;;17.30;58.80;;;;;;6178058;23;20025;-81
2023/05/29 09:10:45;;;;;;;3.47;0.65;;;17.20;58.80;;;;;;6178019;23;20083;-82
2023/05/29 09:13:13;;;;;;;4.03;0.75;;;17.20;58.70;;;;;;6128931;23;20104;-80
2023/05/29 09:15:42;;;;;;;5.90;0.70;;;17.10;58.70;;;;;;6153279;23;20026;-80
2023/05/29 09:18:11;;;;;;;3.85;0.95;;;17.10;58.80;;;;;;6153971;23;20028;-81
2023/05/29 09:20:38;;;;;;;3.08;0.57;;;17.20;58.70;;;;;;6129473;23;20433;-93
2023/05/29 09:23:09;;;;;;;3.53;0.57;;;17.40;58.60;;;;;;6155480;23;20096;-88
2023/05/29 09:26:07;;;;;;;7.80;0.55;;;17.50;58.20;;;;;;6179884;23;20515;-91
2023/05/29 09:28:39;;;;;;;;;;;17.70;58.00;;;;;;6154925;23;20120;-89
2023/05/29 09:31:16;;;;;;;6.40;1.10;;;17.70;58.00;;;;;;6179831;23;20000;-91
2023/05/29 09:33:49;;;;;;;1.65;0.30;;;17.70;57.80;;;;;;6155282;23;20025;-88
2023/05/29 09:36:23;;;;;;;3.92;0.50;;;17.70;57.90;;;;;;6154986;23;20116;-94
2023/05/29 09:38:53;;;;;;;4.63;0.70;;;17.60;57.70;;;;;;6130611;23;20044;-90
2023/05/29 09:41:34;;;;;;;3.15;0.40;;;17.60;57.80;;;;;;6133789;23;20052;-95
2023/05/29 09:44:03;;;;;;;3.95;0.68;;;17.70;57.70;;;;;;6154750;23;20026;-92
2023/05/29 09:46:34;;;;;;;3.42;0.60;;;17.80;57.40;;;;;;6155444;23;20021;-90
2023/05/29 09:49:11;;;;;;;2.72;0.40;;;17.90;57.10;;;;;;6155316;23;20093;-92
2023/05/29 09:51:39;;;;;;;2.88;0.73;;;18.00;56.90;;;;;;6155149;23;20049;-91
2023/05/29 09:54:16;;;;;;;3.20;0.60;;;18.10;56.90;;;;;;6130911;23;20072;-94
2023/05/29 09:57:32;;;;;;;3.90;0.75;;;18.20;56.50;;;;;;6154958;23;20021;-93
2023/05/29 10:03:34;;;;;;;3.47;0.50;;;18.30;56.40;;;;;;6128674;23;20022;-86
2023/05/29 10:06:08;;;;;;;1.70;0.35;;;18.30;56.50;;;;;;6108234;23;20022;-94
2023/05/29 10:08:48;;;;;;;4.70;0.60;;;18.50;56.40;;;;;;6157335;23;20022;-89
2023/05/29 10:11:31;;;;;;;3.70;0.57;;;18.60;56.20;;;;;;6156865;23;20055;-95
2023/05/29 10:14:06;;;;;;;3.25;0.52;;;18.70;55.90;;;;;;6156572;23;20036;-94
2023/05/29 10:20:42;;;;;;;6.35;0.80;;;18.70;55.90;;;;;;6156893;23;20127;-96
2023/05/29 10:23:20;;;;;;;3.65;0.80;;;18.60;55.90;;;;;;6133709;23;20020;-91
2023/05/29 10:26:12;;;;;;;3.15;0.52;;;18.50;56.00;;;;;;6156448;23;20017;-91
2023/05/29 10:32:37;;;;;;;4.93;0.80;;;18.80;55.40;;;;;;6157115;23;20021;-88
2023/05/29 10:35:27;;;;;;;2.63;0.50;;;18.90;55.20;;;;;;6156337;23;20028;-85
2023/05/29 10:38:09;;;;;;;4.18;0.73;;;19.10;54.90;;;;;;6155638;23;20017;-87
2023/05/29 10:40:42;;;;;;;3.58;1.00;;;19.20;54.70;;;;;;6155886;23;20049;-87
2023/05/29 10:43:33;;;;;;;4.40;0.52;;;19.30;54.20;;;;;;6129691;23;20029;-80
2023/05/29 10:46:02;;;;;;;4.35;0.85;;;19.50;53.90;;;;;;6155725;23;20021;-87
2023/05/29 10:48:53;;;;;;;2.50;0.57;;;19.50;53.70;;;;;;6131750;23;20029;-90
2023/05/29 10:51:27;;;;;;;2.47;0.52;;;19.60;53.40;;;;;;6115928;23;20025;-86
2023/05/29 10:53:55;;;;;;;3.83;0.70;;;19.60;53.30;;;;;;6155163;23;20342;-85
2023/05/29 10:56:27;;;;;;;1.63;0.40;;;19.50;53.20;;;;;;6154991;23;20076;-86
2023/05/29 10:58:57;;;;;;;4.32;0.60;;;19.60;53.20;;;;;;6155047;23;20025;-88
2023/05/29 11:01:27;;;;;;;3.83;0.98;;;19.50;52.80;;;;;;6154881;23;20129;-86
2023/05/29 11:04:16;;;;;;;2.95;0.63;;;19.40;52.90;;;;;;6155242;23;20456;-86
2023/05/29 11:06:44;;;;;;;3.75;0.50;;;19.50;52.70;;;;;;6155093;23;20088;-87
2023/05/29 11:09:40;;;;;;;2.70;0.57;;;19.40;52.60;;;;;;6155351;23;20072;-87
2023/05/29 11:12:33;;;;;;;3.15;0.80;;;19.40;52.40;;;;;;6155123;23;20021;-88
2023/05/29 11:15:06;;;;;;;3.25;0.80;;;19.50;52.20;;;;;;6108324;23;20029;-82
2023/05/29 11:17:44;;;;;;;7.75;0.80;;;19.60;52.10;;;;;;6154085;23;20049;-83
2023/05/29 11:20:28;;;;;;;4.22;0.40;;;19.60;51.90;;;;;;6155043;23;20080;-86
2023/05/29 11:23:03;;;;;;;4.03;0.60;;;19.80;51.80;;;;;;6129762;23;20479;-85
2023/05/29 11:25:37;;;;;;;4.88;0.60;;;19.90;52.10;;;;;;6154998;23;20021;-86
2023/05/29 11:28:09;;;;;;;3.00;0.80;;;19.90;51.20;;;;;;6155264;23;20056;-79
2023/05/29 11:30:47;;;;;;;3.55;0.70;;;19.90;51.00;;;;;;6130678;23;20084;-80
2023/05/29 11:33:27;;;;;;;4.28;0.68;;;20.00;50.90;;;;;;6153878;23;20047;-79
2023/05/29 11:35:59;;;;;;;6.38;0.82;;;20.10;50.80;;;;;;6130517;23;20032;-86
2023/05/29 11:38:28;;;;;;;;;;;20.10;50.30;;;;;;6130576;23;20077;-86
2023/05/29 11:40:56;;;;;;;6.60;1.15;;;20.10;50.50;;;;;;6130143;23;20232;-87
2023/05/29 11:43:25;;;;;;;4.18;0.82;;;20.30;50.30;;;;;;6153769;23;20029;-87
2023/05/29 11:45:57;;;;;;;4.47;0.65;;;20.40;50.10;;;;;;6107442;23;20092;-85
2023/05/29 11:48:25;;;;;;;3.90;0.73;;;20.50;49.70;;;;;;6106825;23;20029;-87
2023/05/29 11:50:52;;;;;;;3.58;0.70;;;20.50;49.50;;;;;;6130693;23;20033;-86
2023/05/29 11:53:20;;;;;;;3.83;0.65;;;20.60;49.50;;;;;;6130168;23;20403;-86
2023/05/29 11:55:47;;;;;;;3.22;0.63;;;20.70;49.30;;;;;;6154332;23;20352;-86
2023/05/29 11:58:16;;;;;;;3.33;0.82;;;20.70;49.20;;;;;;6106282;23;20013;-85
2023/05/29 12:00:50;;;;;;;4.75;0.75;;;20.70;49.10;;;;;;6131024;23;20017;-88
2023/05/29 12:03:17;;;;;;;3.95;0.70;;;20.90;48.90;;;;;;6131060;23;20345;-79
2023/05/29 12:05:46;;;;;;;4.40;1.30;;;20.90;48.70;;;;;;6155118;23;20017;-80
2023/05/29 12:08:13;;;;;;;3.15;0.85;;;21.10;48.50;;;;;;6129425;23;20112;-80
2023/05/29 12:16:13;;;;;;;4.32;1.13;;;21.20;48.00;;;;;;5949620;24;20058;-90
2023/05/29 12:18:39;;;;;;;4.75;0.95;;;21.40;47.80;;;;;;5874023;24;20052;-85
2023/05/29 12:21:07;;;;;;;4.53;1.15;;;21.50;47.40;;;;;;5978033;23;20556;-86
2023/05/29 12:23:34;;;;;;;3.22;0.60;;;21.90;47.30;;;;;;6047163;23;20038;-86
2023/05/29 12:26:01;;;;;;;4.75;0.85;;;22.30;46.70;;;;;;6046678;23;20026;-86
2023/05/29 12:28:30;;;;;;;3.70;0.90;;;22.50;46.80;;;;;;6070799;23;20050;-86
2023/05/29 12:30:59;;;;;;;3.67;1.05;;;22.60;46.00;;;;;;6093676;23;20029;-83
2023/05/29 12:33:30;;;;;;;6.00;0.82;;;22.80;45.80;;;;;;6093856;23;20473;-86
2023/05/29 12:36:08;;;;;;;4.70;0.80;;;22.90;45.30;;;;;;6070584;23;20019;-85
2023/05/29 12:38:52;;;;;;;4.15;0.90;;;22.70;45.40;;;;;;6093396;23;20500;-83
2023/05/29 12:41:23;;;;;;;4.05;0.88;;;22.60;46.10;;;;;;6070136;23;20171;-84
2023/05/29 12:43:53;;;;;;;3.22;0.63;;;22.80;45.50;;;;;;6109225;23;20029;-84
2023/05/29 12:46:21;;;;;;;5.35;0.95;;;22.90;45.10;;;;;;6099092;23;20026;-88
2023/05/29 12:48:53;;;;;;;4.65;1.00;;;23.00;44.70;;;;;;6099845;23;20026;-85
2023/05/29 12:51:27;;;;;;;3.50;0.80;;;22.90;44.50;;;;;;6112517;23;20028;-83
2023/05/29 12:53:56;;;;;;;3.58;1.00;;;22.80;44.70;;;;;;6183506;23;20052;-86
2023/05/29 12:56:26;;;;;;;4.18;0.98;;;22.80;44.70;;;;;;6159311;23;20017;-87
2023/05/29 12:58:53;;;;;;;5.28;0.77;;;22.70;44.70;;;;;;6159954;23;20044;-85
2023/05/29 13:01:20;;;;;;;3.80;0.63;;;22.70;44.80;;;;;;6158759;23;20127;-82
2023/05/29 13:03:49;;;;;;;2.80;0.43;;;22.80;44.80;;;;;;6158676;23;20017;-83
2023/05/29 13:06:17;;;;;;;3.38;1.20;;;22.80;44.70;;;;;;6134350;23;20071;-83
2023/05/29 13:08:44;;;;;;;4.63;0.80;;;23.00;44.10;;;;;;6109706;23;20332;-83
2023/05/29 13:11:11;;;;;;;3.00;0.57;;;23.20;43.70;;;;;;6134610;23;20024;-85
2023/05/29 13:13:38;;;;;;;3.17;0.95;;;23.40;43.50;;;;;;6109739;23;20343;-85
2023/05/29 13:16:06;;;;;;;5.93;0.90;;;23.70;43.10;;;;;;6158230;23;20028;-84
2023/05/29 13:18:33;;;;;;;3.78;0.80;;;23.90;42.80;;;;;;6158356;23;20351;-88
2023/05/29 13:21:05;;;;;;;5.97;1.05;;;23.90;42.20;;;;;;6159239;23;20076;-85
2023/05/29 13:23:32;;;;;;;4.18;0.80;;;24.20;42.20;;;;;;6158797;23;20024;-90